sensor_id;sensor_type;location;lat;lon;timestamp;P1;durP1;ratioP1;P2;durP2;ratioP2
53421;SDS011;39319;52.944;5.928;2022-10-22T00:00:14;15.18;;;5.90;;
53421;SDS011;39319;52.944;5.928;2022-10-22T00:02:41;12.88;;;4.90;;
53421;SDS011;39319;52.944;5.928;2022-10-22T00:05:09;18.37;;;5.30;;
53421;SDS011;39319;52.944;5.928;2022-10-22T00:07:35;22.98;;;5.70;;
53421;SDS011;39319;52.944;5.928;2022-10-22T00:10:02;14.47;;;5.10;;
53421;SDS011;39319;52.944;5.928;2022-10-22T00:12:29;10.20;;;5.50;;
53421;SDS011;39319;52.944;5.928;2022-10-22T00:14:54;13.27;;;5.75;;
53421;SDS011;39319;52.944;5.928;2022-10-22T00:17:21;16.42;;;5.40;;
53421;SDS011;39319;52.944;5.928;2022-10-22T00:19:47;12.80;;;5.20;;
53421;SDS011;39319;52.944;5.928;2022-10-22T00:22:12;15.30;;;5.20;;
53421;SDS011;39319;52.944;5.928;2022-10-22T00:24:38;19.77;;;5.90;;
53421;SDS011;39319;52.944;5.928;2022-10-22T00:27:05;21.43;;;5.53;;
53421;SDS011;39319;52.944;5.928;2022-10-22T00:29:33;14.80;;;4.70;;
53421;SDS011;39319;52.944;5.928;2022-10-22T00:31:59;19.27;;;5.00;;
53421;SDS011;39319;52.944;5.928;2022-10-22T00:34:25;17.37;;;4.97;;
53421;SDS011;39319;52.944;5.928;2022-10-22T00:36:53;12.35;;;5.45;;
53421;SDS011;39319;52.944;5.928;2022-10-22T00:39:20;19.90;;;5.60;;
53421;SDS011;39319;52.944;5.928;2022-10-22T00:41:48;18.65;;;5.10;;
53421;SDS011;39319;52.944;5.928;2022-10-22T00:47:18;14.32;;;5.30;;
53421;SDS011;39319;52.944;5.928;2022-10-22T00:49:45;18.57;;;5.73;;
53421;SDS011;39319;52.944;5.928;2022-10-22T00:52:11;12.70;;;4.95;;
53421;SDS011;39319;52.944;5.928;2022-10-22T00:54:37;18.73;;;5.30;;
53421;SDS011;39319;52.944;5.928;2022-10-22T00:57:04;17.02;;;5.68;;
53421;SDS011;39319;52.944;5.928;2022-10-22T00:59:30;16.85;;;5.93;;
53421;SDS011;39319;52.944;5.928;2022-10-22T01:01:56;25.63;;;6.32;;
53421;SDS011;39319;52.944;5.928;2022-10-22T01:04:22;19.20;;;6.15;;
53421;SDS011;39319;52.944;5.928;2022-10-22T01:06:48;14.38;;;5.82;;
53421;SDS011;39319;52.944;5.928;2022-10-22T01:17:23;14.07;;;6.07;;
53421;SDS011;39319;52.944;5.928;2022-10-22T01:22:42;10.85;;;6.15;;
53421;SDS011;39319;52.944;5.928;2022-10-22T01:25:34;13.25;;;7.28;;
53421;SDS011;39319;52.944;5.928;2022-10-22T01:30:44;19.60;;;7.72;;
53421;SDS011;39319;52.944;5.928;2022-10-22T01:33:12;14.93;;;7.05;;
53421;SDS011;39319;52.944;5.928;2022-10-22T01:35:42;15.32;;;6.78;;
53421;SDS011;39319;52.944;5.928;2022-10-22T01:38:13;15.23;;;6.80;;
53421;SDS011;39319;52.944;5.928;2022-10-22T01:40:42;18.95;;;7.03;;
53421;SDS011;39319;52.944;5.928;2022-10-22T01:43:10;17.38;;;7.00;;
53421;SDS011;39319;52.944;5.928;2022-10-22T01:45:41;16.85;;;6.97;;
53421;SDS011;39319;52.944;5.928;2022-10-22T01:54:30;19.58;;;7.22;;
53421;SDS011;39319;52.944;5.928;2022-10-22T01:57:18;18.53;;;6.93;;
53421;SDS011;39319;52.944;5.928;2022-10-22T01:59:58;19.60;;;7.20;;
53421;SDS011;39319;52.944;5.928;2022-10-22T02:07:47;16.60;;;6.60;;
53421;SDS011;39319;52.944;5.928;2022-10-22T02:10:20;14.10;;;4.90;;
53421;SDS011;39319;52.944;5.928;2022-10-22T02:12:51;14.13;;;5.82;;
53421;SDS011;39319;52.944;5.928;2022-10-22T02:15:19;13.27;;;5.28;;
53421;SDS011;39319;52.944;5.928;2022-10-22T02:17:47;15.05;;;5.57;;
53421;SDS011;39319;52.944;5.928;2022-10-22T02:20:18;12.63;;;5.93;;
53421;SDS011;39319;52.944;5.928;2022-10-22T02:22:52;16.08;;;6.13;;
53421;SDS011;39319;52.944;5.928;2022-10-22T02:25:20;13.82;;;6.00;;
53421;SDS011;39319;52.944;5.928;2022-10-22T02:27:52;11.73;;;6.20;;
53421;SDS011;39319;52.944;5.928;2022-10-22T02:30:26;18.05;;;6.55;;
53421;SDS011;39319;52.944;5.928;2022-10-22T02:33:00;13.30;;;6.57;;
53421;SDS011;39319;52.944;5.928;2022-10-22T02:35:32;16.35;;;6.40;;
53421;SDS011;39319;52.944;5.928;2022-10-22T02:37:59;14.23;;;6.28;;
53421;SDS011;39319;52.944;5.928;2022-10-22T02:40:29;14.57;;;7.40;;
53421;SDS011;39319;52.944;5.928;2022-10-22T02:42:56;15.70;;;6.68;;
53421;SDS011;39319;52.944;5.928;2022-10-22T02:45:22;15.13;;;6.90;;
53421;SDS011;39319;52.944;5.928;2022-10-22T02:47:48;16.55;;;7.28;;
53421;SDS011;39319;52.944;5.928;2022-10-22T02:50:14;16.48;;;7.13;;
53421;SDS011;39319;52.944;5.928;2022-10-22T02:52:40;13.45;;;6.35;;
53421;SDS011;39319;52.944;5.928;2022-10-22T02:55:06;16.93;;;7.50;;
53421;SDS011;39319;52.944;5.928;2022-10-22T02:57:32;16.88;;;8.05;;
53421;SDS011;39319;52.944;5.928;2022-10-22T02:59:58;14.87;;;6.83;;
53421;SDS011;39319;52.944;5.928;2022-10-22T03:02:23;14.27;;;7.00;;
53421;SDS011;39319;52.944;5.928;2022-10-22T03:04:49;14.57;;;6.55;;
53421;SDS011;39319;52.944;5.928;2022-10-22T03:07:15;13.68;;;6.50;;
53421;SDS011;39319;52.944;5.928;2022-10-22T03:09:41;15.02;;;6.43;;
53421;SDS011;39319;52.944;5.928;2022-10-22T03:12:07;12.20;;;6.45;;
53421;SDS011;39319;52.944;5.928;2022-10-22T03:14:33;18.10;;;7.13;;
53421;SDS011;39319;52.944;5.928;2022-10-22T03:17:00;18.63;;;7.60;;
53421;SDS011;39319;52.944;5.928;2022-10-22T03:19:26;12.30;;;6.47;;
53421;SDS011;39319;52.944;5.928;2022-10-22T03:21:55;15.88;;;7.22;;
53421;SDS011;39319;52.944;5.928;2022-10-22T03:24:37;17.90;;;7.47;;
53421;SDS011;39319;52.944;5.928;2022-10-22T03:27:06;19.92;;;7.10;;
53421;SDS011;39319;52.944;5.928;2022-10-22T03:29:33;19.88;;;6.45;;
53421;SDS011;39319;52.944;5.928;2022-10-22T03:32:01;15.85;;;7.40;;
53421;SDS011;39319;52.944;5.928;2022-10-22T03:34:27;15.57;;;7.03;;
53421;SDS011;39319;52.944;5.928;2022-10-22T03:36:53;18.42;;;7.65;;
53421;SDS011;39319;52.944;5.928;2022-10-22T03:39:21;26.08;;;6.95;;
53421;SDS011;39319;52.944;5.928;2022-10-22T03:41:47;16.80;;;6.50;;
53421;SDS011;39319;52.944;5.928;2022-10-22T03:44:14;15.88;;;7.32;;
53421;SDS011;39319;52.944;5.928;2022-10-22T03:46:41;21.45;;;6.95;;
53421;SDS011;39319;52.944;5.928;2022-10-22T03:49:07;14.68;;;6.32;;
53421;SDS011;39319;52.944;5.928;2022-10-22T03:51:33;16.37;;;6.90;;
53421;SDS011;39319;52.944;5.928;2022-10-22T03:54:01;15.48;;;6.82;;
53421;SDS011;39319;52.944;5.928;2022-10-22T03:56:27;19.70;;;7.32;;
53421;SDS011;39319;52.944;5.928;2022-10-22T03:58:56;16.45;;;7.25;;
53421;SDS011;39319;52.944;5.928;2022-10-22T04:01:24;17.88;;;6.80;;
53421;SDS011;39319;52.944;5.928;2022-10-22T04:03:51;17.92;;;7.20;;
53421;SDS011;39319;52.944;5.928;2022-10-22T04:06:17;19.50;;;8.05;;
53421;SDS011;39319;52.944;5.928;2022-10-22T04:08:46;20.63;;;8.30;;
53421;SDS011;39319;52.944;5.928;2022-10-22T04:11:13;16.13;;;7.50;;
53421;SDS011;39319;52.944;5.928;2022-10-22T04:13:41;18.10;;;7.65;;
53421;SDS011;39319;52.944;5.928;2022-10-22T04:18:38;18.50;;;8.00;;
53421;SDS011;39319;52.944;5.928;2022-10-22T04:21:05;15.25;;;7.72;;
53421;SDS011;39319;52.944;5.928;2022-10-22T04:23:32;20.23;;;9.02;;
53421;SDS011;39319;52.944;5.928;2022-10-22T04:25:58;19.40;;;8.68;;
53421;SDS011;39319;52.944;5.928;2022-10-22T04:28:25;17.83;;;8.27;;
53421;SDS011;39319;52.944;5.928;2022-10-22T04:30:50;18.43;;;7.87;;
53421;SDS011;39319;52.944;5.928;2022-10-22T04:33:16;19.15;;;7.90;;
53421;SDS011;39319;52.944;5.928;2022-10-22T04:35:42;16.48;;;8.32;;
53421;SDS011;39319;52.944;5.928;2022-10-22T04:38:08;14.82;;;8.75;;
53421;SDS011;39319;52.944;5.928;2022-10-22T04:40:33;18.27;;;9.17;;
53421;SDS011;39319;52.944;5.928;2022-10-22T04:42:59;15.07;;;8.40;;
53421;SDS011;39319;52.944;5.928;2022-10-22T04:45:25;18.48;;;8.88;;
53421;SDS011;39319;52.944;5.928;2022-10-22T04:47:50;15.10;;;8.30;;
53421;SDS011;39319;52.944;5.928;2022-10-22T04:50:16;20.63;;;8.15;;
53421;SDS011;39319;52.944;5.928;2022-10-22T04:52:42;26.55;;;8.07;;
53421;SDS011;39319;52.944;5.928;2022-10-22T04:55:08;24.03;;;8.70;;
53421;SDS011;39319;52.944;5.928;2022-10-22T04:57:33;16.15;;;8.45;;
53421;SDS011;39319;52.944;5.928;2022-10-22T04:59:59;20.50;;;7.80;;
53421;SDS011;39319;52.944;5.928;2022-10-22T05:02:25;19.13;;;7.93;;
53421;SDS011;39319;52.944;5.928;2022-10-22T05:04:51;21.98;;;7.90;;
53421;SDS011;39319;52.944;5.928;2022-10-22T05:07:17;16.60;;;7.18;;
53421;SDS011;39319;52.944;5.928;2022-10-22T05:09:46;14.63;;;7.30;;
53421;SDS011;39319;52.944;5.928;2022-10-22T05:12:12;19.30;;;8.85;;
53421;SDS011;39319;52.944;5.928;2022-10-22T05:14:37;12.67;;;7.20;;
53421;SDS011;39319;52.944;5.928;2022-10-22T05:17:03;16.67;;;8.18;;
53421;SDS011;39319;52.944;5.928;2022-10-22T05:19:29;18.85;;;8.63;;
53421;SDS011;39319;52.944;5.928;2022-10-22T05:21:56;16.05;;;8.38;;
53421;SDS011;39319;52.944;5.928;2022-10-22T05:24:24;18.55;;;8.00;;
53421;SDS011;39319;52.944;5.928;2022-10-22T05:26:54;13.90;;;8.02;;
53421;SDS011;39319;52.944;5.928;2022-10-22T05:29:22;18.27;;;7.72;;
53421;SDS011;39319;52.944;5.928;2022-10-22T05:31:48;20.92;;;7.13;;
53421;SDS011;39319;52.944;5.928;2022-10-22T05:34:14;20.15;;;7.95;;
53421;SDS011;39319;52.944;5.928;2022-10-22T05:36:40;17.58;;;6.85;;
53421;SDS011;39319;52.944;5.928;2022-10-22T05:39:06;20.60;;;7.38;;
53421;SDS011;39319;52.944;5.928;2022-10-22T05:41:32;20.02;;;7.88;;
53421;SDS011;39319;52.944;5.928;2022-10-22T05:43:59;15.25;;;7.30;;
53421;SDS011;39319;52.944;5.928;2022-10-22T05:46:27;20.05;;;7.82;;
53421;SDS011;39319;52.944;5.928;2022-10-22T05:48:55;26.27;;;7.05;;
53421;SDS011;39319;52.944;5.928;2022-10-22T05:51:23;19.38;;;7.60;;
53421;SDS011;39319;52.944;5.928;2022-10-22T05:53:51;19.65;;;7.90;;
53421;SDS011;39319;52.944;5.928;2022-10-22T05:56:18;23.65;;;7.43;;
53421;SDS011;39319;52.944;5.928;2022-10-22T05:58:44;18.70;;;8.10;;
53421;SDS011;39319;52.944;5.928;2022-10-22T06:01:11;19.58;;;7.90;;
53421;SDS011;39319;52.944;5.928;2022-10-22T06:03:40;16.35;;;6.90;;
53421;SDS011;39319;52.944;5.928;2022-10-22T06:06:11;15.27;;;8.00;;
53421;SDS011;39319;52.944;5.928;2022-10-22T06:09:05;17.23;;;7.75;;
53421;SDS011;39319;52.944;5.928;2022-10-22T06:11:44;15.50;;;7.30;;
53421;SDS011;39319;52.944;5.928;2022-10-22T06:14:10;18.30;;;7.57;;
53421;SDS011;39319;52.944;5.928;2022-10-22T06:16:36;17.48;;;8.45;;
53421;SDS011;39319;52.944;5.928;2022-10-22T06:19:03;15.70;;;7.68;;
53421;SDS011;39319;52.944;5.928;2022-10-22T06:21:29;17.17;;;8.05;;
53421;SDS011;39319;52.944;5.928;2022-10-22T06:23:56;16.75;;;8.05;;
53421;SDS011;39319;52.944;5.928;2022-10-22T06:26:22;19.55;;;8.23;;
53421;SDS011;39319;52.944;5.928;2022-10-22T06:28:48;17.20;;;7.60;;
53421;SDS011;39319;52.944;5.928;2022-10-22T06:31:14;21.17;;;8.23;;
53421;SDS011;39319;52.944;5.928;2022-10-22T06:33:40;18.42;;;7.18;;
53421;SDS011;39319;52.944;5.928;2022-10-22T06:38:39;17.77;;;7.83;;
53421;SDS011;39319;52.944;5.928;2022-10-22T06:41:09;17.40;;;7.25;;
53421;SDS011;39319;52.944;5.928;2022-10-22T06:43:36;21.38;;;7.20;;
53421;SDS011;39319;52.944;5.928;2022-10-22T06:46:03;22.33;;;8.30;;
53421;SDS011;39319;52.944;5.928;2022-10-22T06:48:31;17.98;;;7.57;;
53421;SDS011;39319;52.944;5.928;2022-10-22T06:51:01;14.65;;;7.30;;
53421;SDS011;39319;52.944;5.928;2022-10-22T06:53:28;17.90;;;7.32;;
53421;SDS011;39319;52.944;5.928;2022-10-22T06:55:54;17.77;;;7.80;;
53421;SDS011;39319;52.944;5.928;2022-10-22T06:58:20;17.88;;;7.47;;
53421;SDS011;39319;52.944;5.928;2022-10-22T07:00:46;18.57;;;8.00;;
53421;SDS011;39319;52.944;5.928;2022-10-22T07:03:12;16.87;;;7.17;;
53421;SDS011;39319;52.944;5.928;2022-10-22T07:05:39;15.00;;;7.40;;
53421;SDS011;39319;52.944;5.928;2022-10-22T07:08:06;22.17;;;8.07;;
53421;SDS011;39319;52.944;5.928;2022-10-22T07:10:32;19.77;;;7.63;;
53421;SDS011;39319;52.944;5.928;2022-10-22T07:12:58;14.65;;;7.50;;
53421;SDS011;39319;52.944;5.928;2022-10-22T07:15:24;18.83;;;7.80;;
53421;SDS011;39319;52.944;5.928;2022-10-22T07:17:50;18.02;;;7.60;;
53421;SDS011;39319;52.944;5.928;2022-10-22T07:20:19;18.53;;;7.20;;
53421;SDS011;39319;52.944;5.928;2022-10-22T07:22:45;22.83;;;8.45;;
53421;SDS011;39319;52.944;5.928;2022-10-22T07:25:11;23.27;;;7.77;;
53421;SDS011;39319;52.944;5.928;2022-10-22T07:27:37;16.40;;;6.90;;
53421;SDS011;39319;52.944;5.928;2022-10-22T07:30:03;16.42;;;7.53;;
53421;SDS011;39319;52.944;5.928;2022-10-22T07:32:29;21.20;;;8.07;;
53421;SDS011;39319;52.944;5.928;2022-10-22T07:34:54;16.70;;;8.10;;
53421;SDS011;39319;52.944;5.928;2022-10-22T07:37:20;21.05;;;8.15;;
53421;SDS011;39319;52.944;5.928;2022-10-22T07:39:47;21.42;;;9.20;;
53421;SDS011;39319;52.944;5.928;2022-10-22T07:42:13;21.58;;;8.20;;
53421;SDS011;39319;52.944;5.928;2022-10-22T07:44:39;18.35;;;8.68;;
53421;SDS011;39319;52.944;5.928;2022-10-22T07:47:04;19.70;;;8.47;;
53421;SDS011;39319;52.944;5.928;2022-10-22T07:49:31;19.30;;;8.25;;
53421;SDS011;39319;52.944;5.928;2022-10-22T07:51:56;22.00;;;8.65;;
53421;SDS011;39319;52.944;5.928;2022-10-22T07:54:22;20.93;;;8.57;;
53421;SDS011;39319;52.944;5.928;2022-10-22T07:56:49;19.13;;;8.23;;
53421;SDS011;39319;52.944;5.928;2022-10-22T07:59:17;19.02;;;8.88;;
53421;SDS011;39319;52.944;5.928;2022-10-22T08:01:43;18.80;;;8.75;;
53421;SDS011;39319;52.944;5.928;2022-10-22T08:04:10;21.05;;;8.70;;
53421;SDS011;39319;52.944;5.928;2022-10-22T08:06:35;21.37;;;9.03;;
53421;SDS011;39319;52.944;5.928;2022-10-22T08:09:02;18.70;;;8.60;;
53421;SDS011;39319;52.944;5.928;2022-10-22T08:11:28;25.35;;;8.57;;
53421;SDS011;39319;52.944;5.928;2022-10-22T08:13:55;17.85;;;7.43;;
53421;SDS011;39319;52.944;5.928;2022-10-22T08:16:20;18.25;;;8.63;;
53421;SDS011;39319;52.944;5.928;2022-10-22T08:18:46;24.77;;;8.53;;
53421;SDS011;39319;52.944;5.928;2022-10-22T08:21:12;20.25;;;8.43;;
53421;SDS011;39319;52.944;5.928;2022-10-22T08:23:38;21.83;;;8.13;;
53421;SDS011;39319;52.944;5.928;2022-10-22T08:26:04;23.80;;;8.60;;
53421;SDS011;39319;52.944;5.928;2022-10-22T08:28:30;20.50;;;8.48;;
53421;SDS011;39319;52.944;5.928;2022-10-22T08:30:59;21.48;;;8.65;;
53421;SDS011;39319;52.944;5.928;2022-10-22T08:33:26;21.33;;;8.15;;
53421;SDS011;39319;52.944;5.928;2022-10-22T08:35:51;21.13;;;8.05;;
53421;SDS011;39319;52.944;5.928;2022-10-22T08:38:17;23.58;;;8.15;;
53421;SDS011;39319;52.944;5.928;2022-10-22T08:40:43;21.40;;;7.47;;
53421;SDS011;39319;52.944;5.928;2022-10-22T08:49:20;23.13;;;7.40;;
53421;SDS011;39319;52.944;5.928;2022-10-22T08:51:51;19.40;;;7.43;;
53421;SDS011;39319;52.944;5.928;2022-10-22T08:54:46;19.73;;;7.25;;
53421;SDS011;39319;52.944;5.928;2022-10-22T09:02:57;21.08;;;6.63;;
53421;SDS011;39319;52.944;5.928;2022-10-22T09:08:16;18.30;;;6.65;;
53421;SDS011;39319;52.944;5.928;2022-10-22T09:10:51;17.42;;;6.40;;
53421;SDS011;39319;52.944;5.928;2022-10-22T09:13:41;22.33;;;6.80;;
53421;SDS011;39319;52.944;5.928;2022-10-22T09:16:18;20.52;;;6.78;;
53421;SDS011;39319;52.944;5.928;2022-10-22T09:26:54;22.60;;;6.22;;
53421;SDS011;39319;52.944;5.928;2022-10-22T09:29:21;20.92;;;6.10;;
53421;SDS011;39319;52.944;5.928;2022-10-22T09:31:54;17.23;;;6.30;;
53421;SDS011;39319;52.944;5.928;2022-10-22T09:34:20;20.30;;;5.53;;
53421;SDS011;39319;52.944;5.928;2022-10-22T09:36:47;21.38;;;6.35;;
53421;SDS011;39319;52.944;5.928;2022-10-22T09:39:33;19.50;;;6.53;;
53421;SDS011;39319;52.944;5.928;2022-10-22T09:42:10;22.97;;;6.33;;
53421;SDS011;39319;52.944;5.928;2022-10-22T09:44:39;19.40;;;5.50;;
53421;SDS011;39319;52.944;5.928;2022-10-22T09:47:06;20.47;;;6.50;;
53421;SDS011;39319;52.944;5.928;2022-10-22T09:49:50;16.63;;;5.13;;
53421;SDS011;39319;52.944;5.928;2022-10-22T09:52:59;22.75;;;6.50;;
53421;SDS011;39319;52.944;5.928;2022-10-22T09:55:43;20.00;;;6.38;;
53421;SDS011;39319;52.944;5.928;2022-10-22T09:58:16;20.73;;;5.85;;
53421;SDS011;39319;52.944;5.928;2022-10-22T10:00:43;19.52;;;6.95;;
53421;SDS011;39319;52.944;5.928;2022-10-22T10:03:15;22.85;;;6.65;;
53421;SDS011;39319;52.944;5.928;2022-10-22T10:05:44;17.67;;;6.63;;
53421;SDS011;39319;52.944;5.928;2022-10-22T10:08:13;19.60;;;7.22;;
53421;SDS011;39319;52.944;5.928;2022-10-22T10:10:47;20.57;;;7.50;;
53421;SDS011;39319;52.944;5.928;2022-10-22T10:21:44;18.98;;;8.68;;
53421;SDS011;39319;52.944;5.928;2022-10-22T10:27:19;23.35;;;10.40;;
53421;SDS011;39319;52.944;5.928;2022-10-22T10:29:53;25.50;;;10.37;;
53421;SDS011;39319;52.944;5.928;2022-10-22T10:32:29;22.58;;;10.77;;
53421;SDS011;39319;52.944;5.928;2022-10-22T10:40:55;21.25;;;10.38;;
53421;SDS011;39319;52.944;5.928;2022-10-22T10:46:13;22.43;;;11.00;;
53421;SDS011;39319;52.944;5.928;2022-10-22T10:54:10;22.50;;;9.70;;
53421;SDS011;39319;52.944;5.928;2022-10-22T11:05:06;24.02;;;10.40;;
53421;SDS011;39319;52.944;5.928;2022-10-22T11:07:48;20.45;;;8.93;;
53421;SDS011;39319;52.944;5.928;2022-10-22T11:10:25;20.48;;;8.75;;
53421;SDS011;39319;52.944;5.928;2022-10-22T11:13:16;22.58;;;8.60;;
53421;SDS011;39319;52.944;5.928;2022-10-22T11:16:00;19.95;;;8.40;;
53421;SDS011;39319;52.944;5.928;2022-10-22T11:22:24;16.98;;;6.93;;
53421;SDS011;39319;52.944;5.928;2022-10-22T11:32:41;24.08;;;7.05;;
53421;SDS011;39319;52.944;5.928;2022-10-22T11:35:15;19.25;;;6.88;;
53421;SDS011;39319;52.944;5.928;2022-10-22T11:37:46;20.38;;;6.57;;
53421;SDS011;39319;52.944;5.928;2022-10-22T11:40:19;22.02;;;6.20;;
53421;SDS011;39319;52.944;5.928;2022-10-22T11:43:06;16.65;;;5.47;;
53421;SDS011;39319;52.944;5.928;2022-10-22T11:45:35;21.25;;;5.95;;
53421;SDS011;39319;52.944;5.928;2022-10-22T11:50:46;14.93;;;5.00;;
53421;SDS011;39319;52.944;5.928;2022-10-22T11:55:50;12.35;;;4.07;;
53421;SDS011;39319;52.944;5.928;2022-10-22T12:00:53;13.10;;;3.72;;
53421;SDS011;39319;52.944;5.928;2022-10-22T12:06:26;16.45;;;4.40;;
53421;SDS011;39319;52.944;5.928;2022-10-22T12:08:57;14.10;;;4.18;;
53421;SDS011;39319;52.944;5.928;2022-10-22T12:14:33;16.38;;;4.28;;
53421;SDS011;39319;52.944;5.928;2022-10-22T12:17:21;18.00;;;4.20;;
53421;SDS011;39319;52.944;5.928;2022-10-22T12:19:54;16.83;;;3.40;;
53421;SDS011;39319;52.944;5.928;2022-10-22T12:22:29;13.25;;;3.08;;
53421;SDS011;39319;52.944;5.928;2022-10-22T12:25:00;13.85;;;3.00;;
53421;SDS011;39319;52.944;5.928;2022-10-22T12:27:48;12.50;;;2.90;;
53421;SDS011;39319;52.944;5.928;2022-10-22T12:30:31;14.88;;;2.90;;
53421;SDS011;39319;52.944;5.928;2022-10-22T12:33:03;17.58;;;3.03;;
53421;SDS011;39319;52.944;5.928;2022-10-22T12:35:32;13.63;;;2.42;;
53421;SDS011;39319;52.944;5.928;2022-10-22T12:38:21;13.95;;;2.78;;
53421;SDS011;39319;52.944;5.928;2022-10-22T12:40:53;12.93;;;2.53;;
53421;SDS011;39319;52.944;5.928;2022-10-22T12:43:36;15.05;;;3.00;;
53421;SDS011;39319;52.944;5.928;2022-10-22T12:46:09;16.13;;;2.73;;
53421;SDS011;39319;52.944;5.928;2022-10-22T12:48:41;11.57;;;2.47;;
53421;SDS011;39319;52.944;5.928;2022-10-22T12:51:20;13.05;;;2.17;;
53421;SDS011;39319;52.944;5.928;2022-10-22T12:53:50;13.07;;;2.47;;
53421;SDS011;39319;52.944;5.928;2022-10-22T12:56:27;11.30;;;2.30;;
53421;SDS011;39319;52.944;5.928;2022-10-22T12:58:59;13.95;;;2.33;;
53421;SDS011;39319;52.944;5.928;2022-10-22T13:01:28;10.10;;;2.10;;
53421;SDS011;39319;52.944;5.928;2022-10-22T13:06:51;15.20;;;2.42;;
53421;SDS011;39319;52.944;5.928;2022-10-22T13:09:37;12.35;;;2.15;;
53421;SDS011;39319;52.944;5.928;2022-10-22T13:12:08;10.70;;;1.73;;
53421;SDS011;39319;52.944;5.928;2022-10-22T13:14:40;14.25;;;2.20;;
53421;SDS011;39319;52.944;5.928;2022-10-22T13:17:14;10.68;;;1.67;;
53421;SDS011;39319;52.944;5.928;2022-10-22T13:24:51;8.82;;;1.33;;
53421;SDS011;39319;52.944;5.928;2022-10-22T13:27:17;10.90;;;1.80;;
53421;SDS011;39319;52.944;5.928;2022-10-22T13:29:47;8.37;;;1.60;;
53421;SDS011;39319;52.944;5.928;2022-10-22T13:32:32;8.90;;;1.83;;
53421;SDS011;39319;52.944;5.928;2022-10-22T13:34:58;8.85;;;1.27;;
53421;SDS011;39319;52.944;5.928;2022-10-22T13:37:26;12.23;;;1.70;;
53421;SDS011;39319;52.944;5.928;2022-10-22T13:39:57;12.55;;;1.70;;
53421;SDS011;39319;52.944;5.928;2022-10-22T13:42:23;9.57;;;1.95;;
53421;SDS011;39319;52.944;5.928;2022-10-22T13:44:51;10.57;;;2.00;;
53421;SDS011;39319;52.944;5.928;2022-10-22T13:47:27;9.63;;;1.87;;
53421;SDS011;39319;52.944;5.928;2022-10-22T13:50:01;11.30;;;1.80;;
53421;SDS011;39319;52.944;5.928;2022-10-22T13:52:38;17.02;;;2.30;;
53421;SDS011;39319;52.944;5.928;2022-10-22T13:55:19;10.93;;;2.20;;
53421;SDS011;39319;52.944;5.928;2022-10-22T13:57:57;14.88;;;2.45;;
53421;SDS011;39319;52.944;5.928;2022-10-22T14:00:27;12.32;;;1.88;;
53421;SDS011;39319;52.944;5.928;2022-10-22T14:02:54;13.23;;;2.22;;
53421;SDS011;39319;52.944;5.928;2022-10-22T14:05:23;15.35;;;2.60;;
53421;SDS011;39319;52.944;5.928;2022-10-22T14:07:49;14.00;;;2.78;;
53421;SDS011;39319;52.944;5.928;2022-10-22T14:12:43;16.20;;;3.17;;
53421;SDS011;39319;52.944;5.928;2022-10-22T14:15:10;16.20;;;2.72;;
53421;SDS011;39319;52.944;5.928;2022-10-22T14:17:41;16.45;;;3.15;;
53421;SDS011;39319;52.944;5.928;2022-10-22T14:20:13;15.73;;;2.97;;
53421;SDS011;39319;52.944;5.928;2022-10-22T14:22:48;15.35;;;2.67;;
53421;SDS011;39319;52.944;5.928;2022-10-22T14:25:19;14.48;;;3.50;;
53421;SDS011;39319;52.944;5.928;2022-10-22T14:27:47;16.90;;;3.30;;
53421;SDS011;39319;52.944;5.928;2022-10-22T14:30:17;16.25;;;3.60;;
53421;SDS011;39319;52.944;5.928;2022-10-22T14:32:44;18.63;;;3.13;;
53421;SDS011;39319;52.944;5.928;2022-10-22T14:35:18;16.87;;;3.30;;
53421;SDS011;39319;52.944;5.928;2022-10-22T14:37:45;18.23;;;3.67;;
53421;SDS011;39319;52.944;5.928;2022-10-22T14:40:13;17.38;;;3.40;;
53421;SDS011;39319;52.944;5.928;2022-10-22T14:42:42;19.05;;;3.47;;
53421;SDS011;39319;52.944;5.928;2022-10-22T14:45:30;18.13;;;3.60;;
53421;SDS011;39319;52.944;5.928;2022-10-22T14:47:55;17.98;;;3.60;;
53421;SDS011;39319;52.944;5.928;2022-10-22T14:50:21;18.42;;;3.63;;
53421;SDS011;39319;52.944;5.928;2022-10-22T14:52:48;22.30;;;3.88;;
53421;SDS011;39319;52.944;5.928;2022-10-22T14:55:15;16.33;;;3.40;;
53421;SDS011;39319;52.944;5.928;2022-10-22T14:57:43;21.15;;;4.05;;
53421;SDS011;39319;52.944;5.928;2022-10-22T15:00:15;21.63;;;3.88;;
53421;SDS011;39319;52.944;5.928;2022-10-22T15:02:41;18.75;;;4.00;;
53421;SDS011;39319;52.944;5.928;2022-10-22T15:05:07;20.03;;;4.70;;
53421;SDS011;39319;52.944;5.928;2022-10-22T15:07:36;21.75;;;4.43;;
53421;SDS011;39319;52.944;5.928;2022-10-22T15:10:02;19.10;;;3.75;;
53421;SDS011;39319;52.944;5.928;2022-10-22T15:12:29;22.15;;;4.70;;
53421;SDS011;39319;52.944;5.928;2022-10-22T15:14:55;22.83;;;4.03;;
53421;SDS011;39319;52.944;5.928;2022-10-22T15:17:20;27.20;;;4.60;;
53421;SDS011;39319;52.944;5.928;2022-10-22T15:19:47;19.95;;;4.20;;
53421;SDS011;39319;52.944;5.928;2022-10-22T15:22:15;21.40;;;4.40;;
53421;SDS011;39319;52.944;5.928;2022-10-22T15:24:41;21.40;;;4.20;;
53421;SDS011;39319;52.944;5.928;2022-10-22T15:27:27;20.77;;;3.83;;
53421;SDS011;39319;52.944;5.928;2022-10-22T15:29:53;19.48;;;4.03;;
53421;SDS011;39319;52.944;5.928;2022-10-22T15:32:21;18.73;;;4.30;;
53421;SDS011;39319;52.944;5.928;2022-10-22T15:34:46;18.83;;;4.03;;
53421;SDS011;39319;52.944;5.928;2022-10-22T15:37:13;22.98;;;4.15;;
53421;SDS011;39319;52.944;5.928;2022-10-22T15:39:39;21.20;;;4.10;;
53421;SDS011;39319;52.944;5.928;2022-10-22T15:42:05;21.85;;;4.18;;
53421;SDS011;39319;52.944;5.928;2022-10-22T15:44:31;21.20;;;4.32;;
53421;SDS011;39319;52.944;5.928;2022-10-22T15:46:57;30.50;;;4.47;;
53421;SDS011;39319;52.944;5.928;2022-10-22T15:49:26;19.77;;;4.57;;
53421;SDS011;39319;52.944;5.928;2022-10-22T15:51:55;30.17;;;3.83;;
53421;SDS011;39319;52.944;5.928;2022-10-22T15:54:23;24.48;;;3.88;;
53421;SDS011;39319;52.944;5.928;2022-10-22T15:56:52;31.77;;;4.70;;
53421;SDS011;39319;52.944;5.928;2022-10-22T15:59:18;21.20;;;4.33;;
53421;SDS011;39319;52.944;5.928;2022-10-22T16:01:45;21.23;;;4.25;;
53421;SDS011;39319;52.944;5.928;2022-10-22T16:04:11;34.33;;;4.72;;
53421;SDS011;39319;52.944;5.928;2022-10-22T16:06:38;20.90;;;4.93;;
53421;SDS011;39319;52.944;5.928;2022-10-22T16:09:23;32.88;;;5.47;;
53421;SDS011;39319;52.944;5.928;2022-10-22T16:11:50;24.55;;;6.00;;
53421;SDS011;39319;52.944;5.928;2022-10-22T16:14:17;34.35;;;6.80;;
53421;SDS011;39319;52.944;5.928;2022-10-22T16:16:48;24.60;;;5.30;;
53421;SDS011;39319;52.944;5.928;2022-10-22T16:19:16;27.13;;;5.68;;
53421;SDS011;39319;52.944;5.928;2022-10-22T16:21:44;25.20;;;4.93;;
53421;SDS011;39319;52.944;5.928;2022-10-22T16:24:11;26.05;;;5.60;;
53421;SDS011;39319;52.944;5.928;2022-10-22T16:26:37;22.77;;;5.90;;
53421;SDS011;39319;52.944;5.928;2022-10-22T16:29:03;27.93;;;5.63;;
53421;SDS011;39319;52.944;5.928;2022-10-22T16:31:31;28.80;;;5.33;;
53421;SDS011;39319;52.944;5.928;2022-10-22T16:33:57;21.92;;;4.70;;
53421;SDS011;39319;52.944;5.928;2022-10-22T16:36:23;24.85;;;5.05;;
53421;SDS011;39319;52.944;5.928;2022-10-22T16:38:49;24.87;;;4.67;;
53421;SDS011;39319;52.944;5.928;2022-10-22T16:43:42;21.88;;;5.75;;
53421;SDS011;39319;52.944;5.928;2022-10-22T16:46:13;23.52;;;5.47;;
53421;SDS011;39319;52.944;5.928;2022-10-22T16:48:43;26.67;;;8.67;;
53421;SDS011;39319;52.944;5.928;2022-10-22T16:51:11;26.33;;;5.63;;
53421;SDS011;39319;52.944;5.928;2022-10-22T16:53:38;30.30;;;5.22;;